LIMF/TRN METAR and TAF weather

Enter ICAO airport designator
Station Type Date Time Source
LIMF METAR 2024/06/16 08:20 UTC NOAA

LIMF 160820Z 10006KT 040V140 9999 SCT040 21/14 Q1012


Station Type Date Time Source
LIMF Decoded METAR 2024/06/16 08:20 UTC NOAA

Torino / Caselle, Italy (LIMF) 45-13N 007-39E 287M
Jun 16, 2024 - 04:20 AM EDT / 2024.06.16 0820 UTC
Wind: from the E (100 degrees) at 7 MPH (6 KT) (direction variable):0
Visibility: greater than 7 mile(s):0
Sky conditions: partly cloudy
Temperature: 69 F (21 C)
Dew Point: 57 F (14 C)
Relative Humidity: 64%
Pressure (altimeter): 29.88 in. Hg (1012 hPa)
ob: LIMF 160820Z 10006KT 040V140 9999 SCT040 21/14 Q1012
cycle: 8

Station Type Date Time Source
LIMF TAF 2024/06/16 06:25 UTC NOAA